createdAt,value
2019-03-08T00:01:40.821Z,98181.04
2019-03-08T00:04:10.624Z,98178.34
2019-03-08T00:06:40.222Z,98138.30
2019-03-08T00:09:09.673Z,98182.20
2019-03-08T00:11:39.543Z,98172.26
2019-03-08T00:14:09.076Z,98175.76
2019-03-08T00:16:38.513Z,98171.13
2019-03-08T00:19:10.087Z,98175.89
2019-03-08T00:21:39.301Z,98165.22
2019-03-08T00:24:10.915Z,98173.09
2019-03-08T00:26:40.435Z,98179.93
2019-03-08T00:29:10.052Z,98171.44
2019-03-08T00:31:39.695Z,98170.70
2019-03-08T00:34:09.217Z,98168.66
2019-03-08T00:36:38.736Z,98173.13
2019-03-08T00:39:08.286Z,98174.08
2019-03-08T00:41:37.771Z,98169.30
2019-03-08T00:44:07.388Z,98173.98
2019-03-08T00:46:36.866Z,98170.85
2019-03-08T00:49:08.012Z,98175.55
2019-03-08T00:51:37.725Z,98171.50
2019-03-08T00:54:07.160Z,98160.80
2019-03-08T00:56:36.647Z,98161.94
2019-03-08T00:59:06.394Z,98160.38
2019-03-08T01:01:35.928Z,98163.97
2019-03-08T01:04:05.441Z,98163.86
2019-03-08T01:06:34.904Z,98162.22
2019-03-08T01:09:05.591Z,98157.66
2019-03-08T01:11:35.204Z,98155.99
2019-03-08T01:14:04.845Z,98156.21
2019-03-08T01:16:34.390Z,98161.60
2019-03-08T01:19:03.929Z,98159.93
2019-03-08T01:21:33.441Z,98170.90
2019-03-08T01:24:03.054Z,98168.09
2019-03-08T01:26:32.663Z,98168.83
2019-03-08T01:29:02.120Z,98161.98
2019-03-08T01:31:32.010Z,98163.04
2019-03-08T01:34:01.500Z,98156.70
2019-03-08T01:36:30.955Z,98145.31
2019-03-08T01:39:00.808Z,98143.13
2019-03-08T01:41:30.664Z,98145.17
2019-03-08T01:44:00.132Z,98146.00
2019-03-08T01:46:29.658Z,98146.11
2019-03-08T01:48:59.138Z,98140.94
2019-03-08T01:51:28.764Z,98143.33
2019-03-08T01:53:58.394Z,98137.85
2019-03-08T01:56:27.987Z,98136.91
2019-03-08T01:58:57.417Z,98136.20
2019-03-08T02:01:26.988Z,98140.02
2019-03-08T02:03:56.503Z,98128.73
2019-03-08T02:06:26.312Z,98121.56
2019-03-08T02:08:55.892Z,98120.33
2019-03-08T02:11:25.354Z,98121.47
2019-03-08T02:13:54.797Z,98118.13
2019-03-08T02:16:24.336Z,98116.38
2019-03-08T02:18:53.792Z,98113.88
2019-03-08T02:21:23.245Z,98115.44
2019-03-08T02:23:52.697Z,98106.23
2019-03-08T02:26:22.204Z,98111.80
2019-03-08T02:28:52.102Z,98104.75
2019-03-08T02:31:21.549Z,98101.44
2019-03-08T02:33:51.349Z,98103.84
2019-03-08T02:36:20.851Z,98102.89
2019-03-08T02:38:50.364Z,98102.80
2019-03-08T02:41:19.902Z,98095.22
2019-03-08T02:43:49.408Z,98101.63
2019-03-08T02:46:18.978Z,98095.44
2019-03-08T02:48:48.505Z,98097.80
2019-03-08T02:51:19.422Z,98092.52
2019-03-08T02:53:49.001Z,98089.81
2019-03-08T02:56:18.641Z,98088.49
2019-03-08T02:58:48.111Z,98092.01
2019-03-08T03:01:17.641Z,98090.87
2019-03-08T03:03:47.226Z,98086.13
2019-03-08T03:06:16.706Z,98089.84
2019-03-08T03:08:46.205Z,98086.42
2019-03-08T03:11:15.726Z,98091.80
2019-03-08T03:13:45.198Z,98087.87
2019-03-08T03:16:14.650Z,98088.06
2019-03-08T03:18:44.170Z,98088.58
2019-03-08T03:21:13.600Z,98082.06
2019-03-08T03:23:43.043Z,98085.27
2019-03-08T03:26:12.602Z,98084.65
2019-03-08T03:28:42.223Z,98086.83
2019-03-08T03:31:11.813Z,98087.86
2019-03-08T03:33:41.298Z,98084.87
2019-03-08T03:36:10.756Z,98083.70
2019-03-08T03:38:40.230Z,98083.09
2019-03-08T03:41:09.937Z,98090.85
2019-03-08T03:43:39.410Z,98080.30
2019-03-08T03:46:08.858Z,98081.53
2019-03-08T03:48:38.331Z,98080.37
2019-03-08T03:51:07.876Z,98072.83
2019-03-08T03:53:37.311Z,98072.83
2019-03-08T03:56:06.975Z,98073.64
2019-03-08T03:58:36.479Z,98067.73
2019-03-08T04:01:22.437Z,98061.84
2019-03-08T04:03:51.916Z,98069.08
2019-03-08T04:06:21.598Z,98071.38
2019-03-08T04:08:51.095Z,98064.84
2019-03-08T04:11:20.655Z,98052.73
2019-03-08T04:13:50.111Z,98044.34
2019-03-08T04:16:19.699Z,98045.25
2019-03-08T04:18:49.166Z,98053.78
2019-03-08T04:21:18.677Z,98054.19
2019-03-08T04:23:48.180Z,98036.57
2019-03-08T04:26:17.673Z,98039.97
2019-03-08T04:28:47.170Z,98045.58
2019-03-08T04:31:16.695Z,98042.27
2019-03-08T04:33:46.249Z,98049.00
2019-03-08T04:36:15.714Z,98054.69
2019-03-08T04:38:45.226Z,98045.58
2019-03-08T04:41:14.711Z,98049.11
2019-03-08T04:43:44.189Z,98051.19
2019-03-08T04:46:13.732Z,98053.05
2019-03-08T04:48:43.394Z,98052.53
2019-03-08T04:51:12.899Z,98045.98
2019-03-08T04:53:42.441Z,98033.56
2019-03-08T04:56:11.901Z,98028.37
2019-03-08T04:58:41.359Z,98022.14
2019-03-08T05:01:11.014Z,98022.14
2019-03-08T05:03:40.486Z,98012.42
2019-03-08T05:06:09.959Z,98011.26
2019-03-08T05:08:39.479Z,98020.40
2019-03-08T05:11:08.946Z,98012.31
2019-03-08T05:13:38.415Z,98003.08
2019-03-08T05:16:08.326Z,97898.72
2019-03-08T05:18:37.904Z,97996.34
2019-03-08T05:21:07.361Z,97993.05
2019-03-08T05:23:36.898Z,97991.70
2019-03-08T05:26:06.508Z,97987.84
2019-03-08T05:28:35.969Z,97983.19
2019-03-08T05:31:05.602Z,97986.91
2019-03-08T05:33:35.118Z,97977.19
2019-03-08T05:36:04.577Z,97979.66
2019-03-08T05:38:34.033Z,97981.52
2019-03-08T05:41:03.640Z,97982.58
2019-03-08T05:43:33.305Z,97973.44
2019-03-08T05:46:02.798Z,97969.20
2019-03-08T05:48:33.788Z,97978.93
2019-03-08T05:51:03.252Z,97970.33
2019-03-08T05:53:32.750Z,97961.96
2019-03-08T05:56:02.253Z,97964.95
2019-03-08T05:58:31.742Z,97970.14
2019-03-08T06:01:01.239Z,97962.86
2019-03-08T06:03:30.737Z,97958.82
2019-03-08T06:06:00.179Z,97965.37
2019-03-08T06:08:29.768Z,97959.66
2019-03-08T06:11:00.240Z,97958.02
2019-03-08T06:13:29.697Z,97952.82
2019-03-08T06:15:59.235Z,97947.44
2019-03-08T06:18:28.741Z,97944.00
2019-03-08T06:20:58.198Z,97935.92
2019-03-08T06:23:27.737Z,97935.70
2019-03-08T06:25:57.679Z,97933.81
2019-03-08T06:28:27.131Z,97931.12
2019-03-08T06:30:56.688Z,97936.06
2019-03-08T06:33:26.160Z,97923.42
2019-03-08T06:35:55.646Z,97918.64
2019-03-08T06:38:25.163Z,97908.49
2019-03-08T06:40:54.969Z,97903.10
2019-03-08T06:43:24.457Z,97903.91
2019-03-08T06:45:53.916Z,97897.70
2019-03-08T06:48:23.377Z,97897.16
2019-03-08T06:50:52.965Z,97896.87
2019-03-08T06:53:22.438Z,97889.53
2019-03-08T06:55:51.901Z,97909.42
2019-03-08T06:58:42.221Z,97894.51
2019-03-08T07:01:14.912Z,97897.62
2019-03-08T07:03:44.383Z,97893.90
2019-03-08T07:06:13.959Z,97894.12
2019-03-08T07:08:43.426Z,97881.48
2019-03-08T07:11:12.919Z,97883.22
2019-03-08T07:13:42.407Z,97879.17
2019-03-08T07:16:14.906Z,97871.83
2019-03-08T07:18:44.889Z,97873.78
2019-03-08T07:21:31.904Z,97866.11
2019-03-08T07:24:32.581Z,97880.52
2019-03-08T07:27:15.496Z,97862.48
2019-03-08T07:30:15.770Z,97859.56
2019-03-08T07:32:55.973Z,97861.56
2019-03-08T07:35:53.050Z,97864.99
2019-03-08T07:38:38.766Z,97848.91
2019-03-08T07:41:17.408Z,97857.83
2019-03-08T07:44:14.594Z,97853.98
2019-03-08T07:46:59.423Z,97850.81
2019-03-08T07:49:56.445Z,97849.47
2019-03-08T07:52:37.223Z,97846.07
2019-03-08T07:55:24.169Z,97842.67
2019-03-08T07:58:15.404Z,97841.75
2019-03-08T08:01:06.759Z,97840.50
2019-03-08T08:03:58.088Z,97835.84
2019-03-08T08:06:51.210Z,97843.31
2019-03-08T08:09:39.642Z,97836.27
2019-03-08T08:12:31.003Z,97839.59
2019-03-08T08:15:19.416Z,97834.95
2019-03-08T08:18:03.494Z,97837.03
2019-03-08T08:20:48.813Z,97831.32
2019-03-08T08:23:49.524Z,97835.36
2019-03-08T08:26:42.346Z,97828.30
2019-03-08T08:29:35.064Z,97822.92
2019-03-08T08:32:19.313Z,97829.66
2019-03-08T08:35:11.231Z,97822.41
2019-03-08T08:38:05.347Z,97827.51
2019-03-08T08:40:52.325Z,97818.59
2019-03-08T08:43:38.588Z,97804.52
2019-03-08T08:46:29.741Z,97805.03
2019-03-08T08:49:23.952Z,97799.32
2019-03-08T08:52:12.295Z,97802.53
2019-03-08T08:55:01.624Z,97796.85
2019-03-08T08:57:48.853Z,97800.89
2019-03-08T09:00:37.890Z,97796.02
2019-03-08T09:03:25.376Z,97794.32
2019-03-08T09:06:20.942Z,97795.38
2019-03-08T09:09:07.901Z,97785.31
2019-03-08T09:11:56.296Z,97785.02
2019-03-08T09:14:36.545Z,97784.41
2019-03-08T09:17:11.689Z,97777.14
2019-03-08T09:20:03.125Z,97779.54
2019-03-08T09:22:51.501Z,97776.34
2019-03-08T09:25:35.023Z,97776.34
2019-03-08T09:28:16.710Z,97770.11
2019-03-08T09:31:08.230Z,97770.63
2019-03-08T09:33:53.440Z,97769.28
2019-03-08T09:36:40.866Z,97767.10
2019-03-08T09:39:35.340Z,97762.23
2019-03-08T09:42:26.805Z,97768.96
2019-03-08T09:45:14.223Z,97765.47
2019-03-08T09:48:02.766Z,97751.17
2019-03-08T09:50:39.251Z,97748.99
2019-03-08T09:53:36.713Z,97744.95
2019-03-08T09:56:22.185Z,97746.62
2019-03-08T09:59:27.502Z,97750.02
2019-03-08T10:02:19.418Z,97744.63
2019-03-08T10:05:17.103Z,97735.95
2019-03-08T10:08:11.942Z,97740.81
2019-03-08T10:11:06.158Z,97729.73
2019-03-08T10:13:50.973Z,97732.13
2019-03-08T10:16:27.544Z,97728.09
2019-03-08T10:19:31.353Z,97695.31
2019-03-08T10:22:08.966Z,97723.22
2019-03-08T10:25:09.605Z,97721.05
2019-03-08T10:28:03.795Z,97721.56
2019-03-08T10:30:45.814Z,97721.05
2019-03-08T10:33:26.452Z,97719.70
2019-03-08T10:36:20.528Z,97719.70
2019-03-08T10:39:11.848Z,97715.66
2019-03-08T10:42:00.247Z,97721.36
2019-03-08T10:44:44.381Z,97721.36
2019-03-08T10:47:38.508Z,97718.67
2019-03-08T10:50:18.761Z,97718.35
2019-03-08T10:53:00.574Z,97721.36
2019-03-08T10:55:43.291Z,97718.16
2019-03-08T10:58:43.625Z,97716.27
2019-03-08T11:01:41.072Z,97711.94
2019-03-08T11:04:34.378Z,97702.20
2019-03-08T11:07:21.023Z,97705.95
2019-03-08T11:10:10.452Z,97696.72
2019-03-08T11:12:53.984Z,97689.98
2019-03-08T11:15:42.336Z,97698.29
2019-03-08T11:18:21.316Z,97685.63
2019-03-08T11:21:05.724Z,97681.59
2019-03-08T11:23:51.427Z,97682.65
2019-03-08T11:26:47.685Z,97682.14
2019-03-08T11:29:38.878Z,97673.00
2019-03-08T11:32:22.778Z,97673.52
2019-03-08T11:35:04.769Z,97670.83
2019-03-08T11:37:55.960Z,97674.86
2019-03-08T11:40:44.155Z,97670.83
2019-03-08T11:43:47.712Z,97670.31
2019-03-08T11:46:31.169Z,97671.46
2019-03-08T11:49:28.851Z,97668.26
2019-03-08T11:52:22.460Z,97658.84
2019-03-08T11:55:09.760Z,97655.59
2019-03-08T11:57:56.867Z,97657.77
2019-03-08T12:01:04.047Z,97653.22
2019-03-08T12:03:55.447Z,97653.45
2019-03-08T12:06:35.630Z,97649.41
2019-03-08T12:09:19.805Z,97655.59
2019-03-08T12:12:16.991Z,97647.01
2019-03-08T12:14:57.042Z,97650.30
2019-03-08T12:17:51.039Z,97640.59
2019-03-08T12:20:39.585Z,97638.51
2019-03-08T12:23:18.649Z,97632.30
2019-03-08T12:26:00.893Z,97626.39
2019-03-08T12:28:48.051Z,97618.92
2019-03-08T12:31:39.181Z,97625.14
2019-03-08T12:34:30.829Z,97613.85
2019-03-08T12:37:17.747Z,97621.93
2019-03-08T12:40:09.462Z,97617.38
2019-03-08T12:42:57.843Z,97619.23
2019-03-08T12:45:49.736Z,97619.52
2019-03-08T12:48:53.331Z,97616.32
2019-03-08T12:51:30.067Z,97607.21
2019-03-08T12:54:22.035Z,97604.52
2019-03-08T12:57:12.954Z,97594.58
2019-03-08T13:00:03.981Z,97599.97
2019-03-08T13:02:58.134Z,97602.95
2019-03-08T13:05:46.744Z,97609.48
2019-03-08T13:08:44.237Z,97598.70
2019-03-08T13:11:13.740Z,97596.30
2019-03-08T13:13:43.257Z,97599.00
2019-03-08T13:16:12.921Z,97596.62
2019-03-08T13:18:42.439Z,97591.84
2019-03-08T13:21:11.905Z,97584.27
2019-03-08T13:23:41.355Z,97578.89
2019-03-08T13:26:10.891Z,97579.23
2019-03-08T13:28:40.385Z,97579.55
2019-03-08T13:31:09.936Z,97577.37
2019-03-08T13:33:39.457Z,97571.16
2019-03-08T13:36:09.623Z,97564.74
2019-03-08T13:38:39.084Z,97566.09
2019-03-08T13:41:08.646Z,97566.89
2019-03-08T13:43:38.435Z,97565.03
2019-03-08T13:46:08.010Z,97557.06
2019-03-08T13:48:37.563Z,97560.47
2019-03-08T13:51:07.180Z,97559.95
2019-03-08T13:53:36.637Z,97555.92
2019-03-08T13:56:06.370Z,97557.88
2019-03-08T13:58:38.112Z,97554.66
2019-03-08T14:01:07.880Z,97558.70
2019-03-08T14:03:37.830Z,97548.45
2019-03-08T14:06:08.443Z,97555.49
2019-03-08T14:08:38.015Z,97548.22
2019-03-08T14:11:07.696Z,97542.31
2019-03-08T14:13:37.391Z,97541.80
2019-03-08T14:16:06.882Z,97541.28
2019-03-08T14:18:36.430Z,97538.59
2019-03-08T14:21:06.210Z,97542.91
2019-03-08T14:23:36.124Z,97537.53
2019-03-08T14:26:06.224Z,97539.70
2019-03-08T14:28:35.830Z,97542.71
2019-03-08T14:31:14.524Z,97540.30
2019-03-08T14:33:46.343Z,97542.71
2019-03-08T14:36:16.002Z,97540.62
2019-03-08T14:38:45.541Z,97540.42
2019-03-08T14:41:24.536Z,97545.49
2019-03-08T14:44:10.980Z,97544.14
2019-03-08T14:46:56.492Z,97547.44
2019-03-08T14:49:25.286Z,97542.80
2019-03-08T14:51:54.775Z,97544.66
2019-03-08T14:54:24.686Z,97541.13
2019-03-08T14:56:54.244Z,97541.65
2019-03-08T14:59:23.832Z,97537.61
2019-03-08T15:01:53.362Z,97546.52
2019-03-08T15:04:22.871Z,97544.66
2019-03-08T15:06:52.775Z,97554.09
2019-03-08T15:09:22.339Z,97582.37
2019-03-08T15:11:52.176Z,97581.85
2019-03-08T15:14:21.885Z,97587.75
2019-03-08T15:16:51.466Z,97593.14
2019-03-08T15:19:21.247Z,97589.94
2019-03-08T15:21:50.726Z,97593.37
2019-03-08T15:24:20.219Z,97595.23
2019-03-08T15:26:49.947Z,97600.30
2019-03-08T15:29:19.460Z,97600.02
2019-03-08T15:31:49.034Z,97601.05
2019-03-08T15:34:21.315Z,97604.25
2019-03-08T15:36:49.933Z,97608.00
2019-03-08T15:39:20.315Z,97615.34
2019-03-08T15:41:50.124Z,97621.25
2019-03-08T15:44:19.611Z,97627.98
2019-03-08T15:46:49.459Z,97636.06
2019-03-08T15:49:19.043Z,97638.98
2019-03-08T15:51:48.563Z,97653.80
2019-03-08T15:54:18.073Z,97656.77
2019-03-08T15:56:47.654Z,97678.83
2019-03-08T15:59:17.163Z,97691.78
2019-03-08T16:01:46.640Z,97696.14
2019-03-08T16:04:18.958Z,97713.33
2019-03-08T16:06:48.402Z,97721.92
2019-03-08T16:09:18.050Z,97719.78
2019-03-08T16:11:47.626Z,97742.86
2019-03-08T16:14:18.910Z,97748.47
2019-03-08T16:16:49.151Z,97764.62
2019-03-08T16:19:20.939Z,97769.41
2019-03-08T16:21:50.839Z,97786.91
2019-03-08T16:24:21.554Z,97782.55
2019-03-08T16:26:51.088Z,97799.41
2019-03-08T16:29:20.510Z,97806.85
2019-03-08T16:32:07.497Z,97809.16
2019-03-08T16:34:37.917Z,97809.67
2019-03-08T16:37:24.756Z,97820.34
2019-03-08T16:40:10.429Z,97821.59
2019-03-08T16:42:50.665Z,97831.33
2019-03-08T16:45:38.779Z,97831.01
2019-03-08T16:48:14.664Z,97842.00
2019-03-08T16:50:56.193Z,97851.09
2019-03-08T16:53:42.089Z,97863.75
2019-03-08T16:56:30.488Z,97864.78
2019-03-08T16:59:15.389Z,97883.84
2019-03-08T17:01:55.735Z,97890.47
2019-03-08T17:04:47.104Z,97897.39
2019-03-08T17:07:38.389Z,97909.72
2019-03-08T17:10:29.979Z,97917.19
2019-03-08T17:13:37.354Z,97933.52
2019-03-08T17:16:37.901Z,97931.05
2019-03-08T17:19:22.178Z,97941.70
2019-03-08T17:22:07.302Z,97948.00
2019-03-08T17:25:10.768Z,97954.95
2019-03-08T17:28:09.998Z,97966.73
2019-03-08T17:31:01.885Z,97965.28
2019-03-08T17:33:51.609Z,97972.23
2019-03-08T17:36:42.672Z,97996.31
2019-03-08T17:39:28.338Z,97993.00
2019-03-08T17:42:06.535Z,98016.20
2019-03-08T17:44:58.154Z,98024.78
2019-03-08T17:47:45.179Z,98030.89
2019-03-08T17:50:47.272Z,98049.39
2019-03-08T17:53:36.861Z,98056.52
2019-03-08T17:56:15.229Z,98076.08
2019-03-08T17:59:02.641Z,98068.40
2019-03-08T18:01:58.819Z,98074.83
2019-03-08T18:05:04.640Z,98079.05
2019-03-08T18:07:51.823Z,98073.88
2019-03-08T18:10:38.385Z,98089.40
2019-03-08T18:13:26.261Z,98096.13
2019-03-08T18:16:02.670Z,98103.84
2019-03-08T18:18:51.131Z,98112.41
2019-03-08T18:21:38.158Z,98136.12
2019-03-08T18:24:36.327Z,98137.14
2019-03-08T18:27:27.812Z,98147.59
2019-03-08T18:30:07.286Z,98159.88
2019-03-08T18:32:59.384Z,98164.13
2019-03-08T18:35:54.449Z,98183.97
2019-03-08T18:38:41.514Z,98184.81
2019-03-08T18:42:17.693Z,98188.34
2019-03-08T18:45:39.369Z,98198.77
2019-03-08T18:48:28.621Z,98208.72
2019-03-08T18:51:15.958Z,98235.30
2019-03-08T18:54:06.660Z,98227.94
2019-03-08T18:57:17.676Z,98248.12
2019-03-08T19:00:24.824Z,98263.42
2019-03-08T19:03:13.710Z,98268.67
2019-03-08T19:06:17.258Z,98280.66
2019-03-08T19:09:03.990Z,98290.06
2019-03-08T19:12:04.274Z,98300.83
2019-03-08T19:15:01.594Z,98315.29
2019-03-08T19:17:57.271Z,98330.29
2019-03-08T19:20:45.146Z,98327.77
2019-03-08T19:23:34.663Z,98341.94
2019-03-08T19:26:35.197Z,98342.77
2019-03-08T19:29:12.685Z,98360.45
2019-03-08T19:32:07.390Z,98365.50
2019-03-08T19:35:29.851Z,98367.98
2019-03-08T19:38:12.910Z,98378.45
2019-03-08T19:40:57.195Z,98398.63
2019-03-08T19:44:06.697Z,98406.98
2019-03-08T19:46:55.236Z,98411.36
2019-03-08T19:49:46.663Z,98417.24
2019-03-08T19:52:28.839Z,98429.68
2019-03-08T19:55:23.366Z,98433.38
2019-03-08T19:58:21.112Z,98435.56
2019-03-08T20:01:03.717Z,98445.81
2019-03-08T20:03:50.546Z,98469.69
2019-03-08T20:06:42.708Z,98475.07
2019-03-08T20:09:30.757Z,98475.58
2019-03-08T20:12:34.533Z,98490.70
2019-03-08T20:15:27.923Z,98489.36
2019-03-08T20:18:25.929Z,98491.55
2019-03-08T20:21:07.864Z,98504.66
2019-03-08T20:23:58.593Z,98524.33
2019-03-08T20:26:47.832Z,98508.69
2019-03-08T20:30:20.208Z,98521.84
2019-03-08T20:32:58.618Z,98519.45
2019-03-08T20:35:37.602Z,98534.24
2019-03-08T20:38:19.139Z,98547.19
2019-03-08T20:41:16.135Z,98556.59
2019-03-08T20:43:56.924Z,98551.22
2019-03-08T20:46:56.388Z,98565.17
2019-03-08T20:50:05.858Z,98584.50
2019-03-08T20:52:37.232Z,98574.79
2019-03-08T20:55:07.496Z,98586.69
2019-03-08T20:57:37.164Z,98597.15
2019-03-08T21:01:06.945Z,98605.22
2019-03-08T21:03:15.615Z,98615.64
2019-03-08T21:05:54.858Z,98617.62
2019-03-08T21:09:19.713Z,98627.52
2019-03-08T21:13:02.426Z,98635.22
2019-03-08T21:15:53.496Z,98650.32
2019-03-08T21:18:49.019Z,98656.81
2019-03-08T21:21:18.831Z,98652.36
2019-03-08T21:23:51.686Z,98650.15
2019-03-08T21:26:21.409Z,98665.83
2019-03-08T21:28:53.265Z,98662.33
2019-03-08T21:31:22.849Z,98671.98
2019-03-08T21:34:29.059Z,98673.27
2019-03-08T21:36:58.646Z,98683.73
2019-03-08T21:39:28.381Z,98682.66
2019-03-08T21:42:31.924Z,98682.42
2019-03-08T21:45:01.726Z,98689.21
2019-03-08T21:47:31.326Z,98705.70
2019-03-08T21:50:00.925Z,98707.80
2019-03-08T21:53:30.261Z,98721.70
2019-03-08T21:55:55.657Z,98720.46
2019-03-08T21:58:25.264Z,98730.18
2019-03-08T22:01:05.473Z,98728.02
2019-03-08T22:03:37.509Z,98728.25
2019-03-08T22:06:09.658Z,98732.02
2019-03-08T22:08:45.953Z,98739.64
2019-03-08T22:11:49.855Z,98755.96
2019-03-08T22:14:30.983Z,98756.16
2019-03-08T22:17:23.141Z,98760.22
2019-03-08T22:23:59.831Z,98771.55
2019-03-08T22:26:38.661Z,98774.09
2019-03-08T22:29:19.034Z,98780.48
2019-03-08T22:31:51.825Z,98785.55
2019-03-08T22:34:23.850Z,98793.30
2019-03-08T22:36:53.387Z,98777.81
2019-03-08T22:39:22.886Z,98791.64
2019-03-08T22:41:52.474Z,98797.52
2019-03-08T22:44:21.970Z,98799.34
2019-03-08T22:46:51.531Z,98807.91
2019-03-08T22:49:21.075Z,98808.95
2019-03-08T22:51:50.659Z,98828.60
2019-03-08T22:54:20.171Z,98818.38
2019-03-08T22:56:49.789Z,98821.06
2019-03-08T22:59:19.288Z,98833.98
2019-03-08T23:01:54.066Z,98836.67
2019-03-08T23:04:23.568Z,98837.20
2019-03-08T23:06:53.109Z,98835.02
2019-03-08T23:09:22.804Z,98842.75
2019-03-08T23:11:52.336Z,98851.66
2019-03-08T23:14:21.844Z,98852.17
2019-03-08T23:16:51.362Z,98849.67
2019-03-08T23:19:20.932Z,98850.31
2019-03-08T23:21:50.496Z,98849.63
2019-03-08T23:24:20.009Z,98860.25
2019-03-08T23:27:07.122Z,98866.45
2019-03-08T23:29:41.616Z,98865.27
2019-03-08T23:32:24.186Z,98863.92
2019-03-08T23:34:53.662Z,98871.52
2019-03-08T23:37:23.208Z,98872.87
2019-03-08T23:39:52.838Z,98873.34
2019-03-08T23:42:22.627Z,98881.07
2019-03-08T23:44:52.201Z,98885.30
2019-03-08T23:47:21.702Z,98891.38
2019-03-08T23:49:51.544Z,98886.84
2019-03-08T23:52:21.098Z,98889.19
2019-03-08T23:54:50.593Z,98888.84
2019-03-08T23:57:20.116Z,98892.88
2019-03-08T23:59:49.607Z,98888.20
